Portada
METAR-TAF:

METAR-TAF

Aeropuertos :

Aeropuerto Internacional Reina Beatrix

Aruba, Aruba

latitud: 12-30N, longitud: 070-01W, altitud: 18 m

Observación

El informe se hizo hace 1 hora y 4 minutos, a las 12:00 UTC
Viento 17 kt del este
Temperatura 26°C
Humedad 79%
Presión 1016 hPa
Visibilidad 10 km o más
Nubes dispersas a una altura de 1700 ft

METAR: TNCA 231200Z 09017KT 9999 SCT017 26/22 Q1016 NOSIG

Hora: 09:04 (13:04 UTC)

Pronóstico

El informe se hizo hace 3 horas y 4 minutos, a las 10:00 UTC
Pronóstico válido del 23 a las 12 UTC al 24 a las 12 UTC
Viento 21 kt del este
Visibilidad 10 km o más
Nubes dispersas a una altura de 2000 ft
Temporalmente
del 23 a las 12 UTC al 23 a las 16 UTC
Cielo nuboso a una altura de 1500 ft

TAF: TNCA 231000Z 2312/2412 09021KT 9999 SCT020 TEMPO 2312/2316 BKN015

Observaciones y pronósticos meteorológicos de más de 4000 aeropuertos (mensajes METAR y TAF).

Los puntos amarillos y rojos representan las estaciones disponibles.

Ponga el ratón en el punto deseado para ver el nombre de la estación.

Haga clic para ver las observaciones y los pronósticos meteorológicos.

Para cambiar el mapa : haga clic en los botones verdes con una cruz de color negro para hacer un zoom, en el botón verde con un guión para alejar o en las flechas verdes para mapas adyacentes.


METAR-TAF: